Google Maps JavaScript API Example
Pilot Flight Report # 92964 Submitted by : AST775 on 2019-05-14
Date: 2019-05-14Aircraft: Howard 500
Flight No.: Not AvailableDistance (Nm): 275.49
Departure: GCXO - Los RodeosDestination: LPPS - Porto Santo
 TimeFuelWeightSpeeds  
Out (Taxi)1545Z5232 lbs30209 lbs Flight RulesVFR
Off (Takeoff)1547Z 31247 lbs107 ktsFlight Level12500
On (Landing)1649Z 28798 lbs98 ktsVSTD-258 ft/min
In (Ramp)1649Z3816 lbs28798 lbs ZFW24980 lbs
Flight1.00  -  1:022448 lbs  Pax0
Block1.07  -  1:041416 lbs  Cargo0
Departure WeatherLEGT 281545Z 28612KT 6SM SCT026 13/12 A3009
Destination WeatherLPMA 281649Z 02608KT 52SM BKN014 16/14 A3015
Flight Commentsmay leg 11 GCXO - LPPS